createdAt,value
2017-08-25T00:00:20.343Z,0
2017-08-25T00:01:00.917Z,0
2017-08-25T00:01:41.463Z,0
2017-08-25T00:02:21.965Z,0
2017-08-25T00:03:02.529Z,0
2017-08-25T00:03:43.072Z,0
2017-08-25T00:04:23.627Z,0
2017-08-25T00:05:04.174Z,0
2017-08-25T00:05:44.736Z,0
2017-08-25T00:06:25.302Z,0
2017-08-25T00:07:05.856Z,0
2017-08-25T00:07:46.418Z,0
2017-08-25T00:08:26.967Z,0
2017-08-25T00:09:07.546Z,0
2017-08-25T00:09:48.108Z,0
2017-08-25T00:10:28.692Z,0
2017-08-25T00:11:09.267Z,0
2017-08-25T00:11:49.841Z,0
2017-08-25T00:12:30.402Z,0
2017-08-25T00:13:10.982Z,0
2017-08-25T00:13:51.546Z,0
2017-08-25T00:14:32.115Z,0
2017-08-25T00:15:12.684Z,0
2017-08-25T00:15:53.241Z,0
2017-08-25T00:16:33.805Z,0
2017-08-25T00:17:14.358Z,0
2017-08-25T00:17:54.935Z,0
2017-08-25T00:18:35.522Z,0
2017-08-25T00:19:16.089Z,0
2017-08-25T00:19:56.655Z,0
2017-08-25T00:20:37.202Z,0
2017-08-25T00:21:17.776Z,0
2017-08-25T00:21:58.343Z,0
2017-08-25T00:22:38.916Z,0
2017-08-25T00:23:19.488Z,0
2017-08-25T00:24:00.058Z,0
2017-08-25T00:24:40.621Z,0
2017-08-25T00:25:21.206Z,0
2017-08-25T00:26:01.762Z,0
2017-08-25T00:26:42.346Z,0
2017-08-25T00:27:22.907Z,0
2017-08-25T00:28:03.484Z,0
2017-08-25T00:28:44.064Z,0
2017-08-25T00:29:24.631Z,0
2017-08-25T00:30:05.188Z,0
2017-08-25T00:30:45.763Z,0
2017-08-25T00:31:26.321Z,0
2017-08-25T00:32:06.880Z,0
2017-08-25T00:32:47.428Z,0
2017-08-25T00:33:28.014Z,0
2017-08-25T00:34:08.597Z,0
2017-08-25T00:34:49.166Z,0
2017-08-25T00:35:29.739Z,0
2017-08-25T00:36:10.286Z,0
2017-08-25T00:36:50.821Z,0
2017-08-25T00:37:31.383Z,0
2017-08-25T00:38:11.951Z,0
2017-08-25T00:38:52.495Z,0
2017-08-25T00:39:33.053Z,0
2017-08-25T00:40:13.613Z,0
2017-08-25T00:40:54.190Z,0
2017-08-25T00:41:34.773Z,0
2017-08-25T00:42:15.335Z,0
2017-08-25T00:42:55.885Z,0
2017-08-25T00:43:36.471Z,0
2017-08-25T00:44:17.008Z,0
2017-08-25T00:44:57.548Z,0
2017-08-25T00:45:38.092Z,0
2017-08-25T00:46:18.683Z,0
2017-08-25T00:46:59.191Z,0
2017-08-25T00:47:39.764Z,0
2017-08-25T00:48:20.324Z,0
2017-08-25T00:49:00.895Z,0
2017-08-25T00:49:41.478Z,0
2017-08-25T00:50:22.049Z,0
2017-08-25T00:51:02.611Z,0
2017-08-25T00:51:43.163Z,0
2017-08-25T00:52:23.756Z,0
2017-08-25T00:53:04.320Z,0
2017-08-25T00:53:44.873Z,0
2017-08-25T00:54:25.426Z,0
2017-08-25T00:55:06.001Z,0
2017-08-25T00:55:46.570Z,0
2017-08-25T00:56:27.119Z,0
2017-08-25T00:57:07.676Z,0
2017-08-25T00:57:48.219Z,0
2017-08-25T00:58:28.809Z,0
2017-08-25T00:59:09.359Z,0
2017-08-25T00:59:49.932Z,0
2017-08-25T01:00:30.478Z,0
2017-08-25T01:01:11.032Z,0
2017-08-25T01:01:51.589Z,0
2017-08-25T01:02:32.154Z,0
2017-08-25T01:03:12.703Z,0
2017-08-25T01:03:53.269Z,0
2017-08-25T01:04:33.837Z,0
2017-08-25T01:05:14.394Z,0
2017-08-25T01:05:54.969Z,0
2017-08-25T01:06:35.541Z,0
2017-08-25T01:07:16.117Z,0
2017-08-25T01:07:56.677Z,0
2017-08-25T01:08:37.252Z,0
2017-08-25T01:09:17.811Z,0
2017-08-25T01:09:58.368Z,0
2017-08-25T01:10:38.938Z,0
2017-08-25T01:11:19.513Z,0
2017-08-25T01:12:00.082Z,0
2017-08-25T01:12:40.638Z,0
2017-08-25T01:13:21.207Z,0
2017-08-25T01:14:01.784Z,0
2017-08-25T01:14:42.354Z,0
2017-08-25T01:15:22.916Z,0
2017-08-25T01:16:03.460Z,0
2017-08-25T01:16:44.030Z,0
2017-08-25T01:17:24.560Z,0
2017-08-25T01:18:05.136Z,0
2017-08-25T01:18:45.693Z,0
2017-08-25T01:19:26.241Z,0
2017-08-25T01:20:06.806Z,0
2017-08-25T01:20:47.372Z,0
2017-08-25T01:21:27.935Z,0
2017-08-25T01:22:08.493Z,0
2017-08-25T01:22:49.045Z,0
2017-08-25T01:23:29.619Z,0
2017-08-25T01:24:10.181Z,0
2017-08-25T01:24:50.718Z,0
2017-08-25T01:25:31.279Z,0
2017-08-25T01:26:11.857Z,0
2017-08-25T01:26:52.386Z,0
2017-08-25T01:27:32.948Z,0
2017-08-25T01:28:13.502Z,0
2017-08-25T01:28:54.054Z,0
2017-08-25T01:29:34.591Z,0
2017-08-25T01:30:15.137Z,0
2017-08-25T01:30:55.714Z,0
2017-08-25T01:31:36.289Z,0
2017-08-25T01:32:16.859Z,0
2017-08-25T01:32:57.420Z,0
2017-08-25T01:33:37.985Z,0
2017-08-25T01:34:18.559Z,0
2017-08-25T01:34:59.098Z,0
2017-08-25T01:35:39.651Z,0
2017-08-25T01:36:20.212Z,0
2017-08-25T01:37:00.777Z,0
2017-08-25T01:37:41.357Z,0
2017-08-25T01:38:21.905Z,0
2017-08-25T01:39:02.466Z,0
2017-08-25T01:39:43.024Z,0
2017-08-25T01:40:23.576Z,0
2017-08-25T01:41:04.702Z,0
2017-08-25T01:41:44.714Z,0
2017-08-25T01:42:25.281Z,0
2017-08-25T01:43:05.838Z,0
2017-08-25T01:43:46.390Z,0
2017-08-25T01:44:26.954Z,0
2017-08-25T01:45:07.506Z,0
2017-08-25T01:45:48.076Z,0
2017-08-25T01:46:28.643Z,0
2017-08-25T01:47:09.221Z,0
2017-08-25T01:47:49.779Z,0
2017-08-25T01:48:30.340Z,0
2017-08-25T01:49:10.927Z,0
2017-08-25T01:49:51.492Z,0
2017-08-25T01:50:32.047Z,0
2017-08-25T01:51:12.616Z,0
2017-08-25T01:51:53.185Z,0
2017-08-25T01:52:33.764Z,0
2017-08-25T01:53:14.334Z,0
2017-08-25T01:53:54.899Z,0
2017-08-25T01:54:35.487Z,0
2017-08-25T01:55:16.044Z,0
2017-08-25T01:55:56.602Z,0
2017-08-25T01:56:37.185Z,0
2017-08-25T01:57:17.750Z,0
2017-08-25T01:57:58.320Z,0
2017-08-25T01:58:38.867Z,0
2017-08-25T01:59:19.436Z,0
2017-08-25T02:00:00.008Z,0
2017-08-25T02:00:40.539Z,0
2017-08-25T02:01:21.088Z,0
2017-08-25T02:02:01.664Z,0
2017-08-25T02:02:42.239Z,0
2017-08-25T02:03:22.786Z,0
2017-08-25T02:04:03.357Z,0
2017-08-25T02:04:43.935Z,0
2017-08-25T02:05:24.511Z,0
2017-08-25T02:06:05.093Z,0
2017-08-25T02:06:45.665Z,0
2017-08-25T02:07:26.214Z,0
2017-08-25T02:08:06.787Z,0
2017-08-25T02:08:47.356Z,0
2017-08-25T02:09:27.914Z,0
2017-08-25T02:10:08.491Z,0
2017-08-25T02:10:49.068Z,0
2017-08-25T02:11:29.619Z,0
2017-08-25T02:12:10.182Z,0
2017-08-25T02:12:50.735Z,0
2017-08-25T02:13:31.307Z,0
2017-08-25T02:14:11.882Z,0
2017-08-25T02:14:52.449Z,0
2017-08-25T02:15:33.013Z,0
2017-08-25T02:16:13.574Z,0
2017-08-25T02:16:54.126Z,0
2017-08-25T02:17:34.682Z,0
2017-08-25T02:18:15.238Z,0
2017-08-25T02:18:55.801Z,0
2017-08-25T02:19:36.362Z,0
2017-08-25T02:20:16.940Z,0
2017-08-25T02:20:57.485Z,0
2017-08-25T02:21:38.059Z,0
2017-08-25T02:22:18.626Z,0
2017-08-25T02:22:59.222Z,0
2017-08-25T02:23:39.791Z,0
2017-08-25T02:24:20.367Z,0
2017-08-25T02:25:00.938Z,0
2017-08-25T02:25:41.513Z,0
2017-08-25T02:26:22.082Z,0
2017-08-25T02:27:02.680Z,0
2017-08-25T02:27:43.219Z,0
2017-08-25T02:28:23.786Z,0
2017-08-25T02:29:04.352Z,0
2017-08-25T02:29:44.912Z,0
2017-08-25T02:30:25.488Z,0
2017-08-25T02:31:06.044Z,0
2017-08-25T02:31:46.612Z,0
2017-08-25T02:32:27.174Z,0
2017-08-25T02:33:07.740Z,0
2017-08-25T02:33:48.304Z,0
2017-08-25T02:34:28.867Z,0
2017-08-25T02:35:09.433Z,0
2017-08-25T02:35:49.991Z,0
2017-08-25T02:36:30.561Z,0
2017-08-25T02:37:11.129Z,0
2017-08-25T02:37:51.683Z,0
2017-08-25T02:38:32.252Z,0
2017-08-25T02:39:12.802Z,0
2017-08-25T02:39:53.385Z,0
2017-08-25T02:40:33.948Z,0
2017-08-25T02:41:14.524Z,0
2017-08-25T02:41:55.107Z,0
2017-08-25T02:42:35.661Z,0
2017-08-25T02:43:16.209Z,0
2017-08-25T02:43:56.777Z,0
2017-08-25T02:44:37.313Z,0
2017-08-25T02:45:17.866Z,0
2017-08-25T02:45:58.416Z,0
2017-08-25T02:46:38.979Z,0
2017-08-25T02:47:19.531Z,0
2017-08-25T02:48:00.078Z,0
2017-08-25T02:48:40.641Z,0
2017-08-25T02:49:21.213Z,0
2017-08-25T02:50:01.792Z,0
2017-08-25T02:50:42.343Z,0
2017-08-25T02:51:22.919Z,0
2017-08-25T02:52:03.466Z,0
2017-08-25T02:52:44.002Z,0
2017-08-25T02:53:24.566Z,0
2017-08-25T02:54:05.128Z,0
2017-08-25T02:54:45.677Z,0
2017-08-25T02:55:26.236Z,0
2017-08-25T02:56:06.783Z,0
2017-08-25T02:56:47.373Z,0
2017-08-25T02:57:27.949Z,0
2017-08-25T02:58:08.499Z,0
2017-08-25T02:58:49.065Z,0
2017-08-25T02:59:29.623Z,0
2017-08-25T03:00:10.186Z,0
2017-08-25T03:00:50.754Z,0
2017-08-25T03:01:31.315Z,0
2017-08-25T03:02:11.876Z,0
2017-08-25T03:02:52.436Z,0
2017-08-25T03:03:33.018Z,0
2017-08-25T03:04:13.595Z,0
2017-08-25T03:04:54.161Z,0
2017-08-25T03:05:34.725Z,0
2017-08-25T03:06:15.292Z,0
2017-08-25T03:06:55.867Z,0
2017-08-25T03:07:36.445Z,0
2017-08-25T03:08:17.003Z,0
2017-08-25T03:08:57.567Z,0
2017-08-25T03:09:38.131Z,0
2017-08-25T03:10:18.699Z,0
2017-08-25T03:10:59.258Z,0
2017-08-25T03:11:39.846Z,0
2017-08-25T03:12:20.406Z,0
2017-08-25T03:13:00.971Z,0
2017-08-25T03:13:41.556Z,0
2017-08-25T03:14:22.126Z,0
2017-08-25T03:15:02.696Z,0
2017-08-25T03:15:43.261Z,0
2017-08-25T03:16:23.820Z,0
2017-08-25T03:17:04.385Z,0
2017-08-25T03:17:44.945Z,0
2017-08-25T03:18:25.521Z,0
2017-08-25T03:19:06.081Z,0
2017-08-25T03:19:46.640Z,0
2017-08-25T03:20:27.207Z,0
2017-08-25T03:21:07.773Z,0
2017-08-25T03:21:48.354Z,0
2017-08-25T03:22:28.921Z,0
2017-08-25T03:23:09.480Z,0
2017-08-25T03:23:50.052Z,0
2017-08-25T03:24:30.615Z,0
2017-08-25T03:25:11.188Z,0
2017-08-25T03:25:51.764Z,0
2017-08-25T03:26:32.346Z,0
2017-08-25T03:27:12.901Z,0
2017-08-25T03:27:53.455Z,0
2017-08-25T03:28:34.019Z,0
2017-08-25T03:29:14.570Z,0
2017-08-25T03:29:55.125Z,0
2017-08-25T03:30:35.693Z,0
2017-08-25T03:31:16.252Z,0
2017-08-25T03:31:56.847Z,0
2017-08-25T03:32:37.409Z,0
2017-08-25T03:33:17.965Z,0
2017-08-25T03:33:58.526Z,0
2017-08-25T03:34:39.082Z,0
2017-08-25T03:35:19.635Z,0
2017-08-25T03:36:00.193Z,0
2017-08-25T03:36:40.759Z,0
2017-08-25T03:37:21.325Z,0
2017-08-25T03:38:01.892Z,0
2017-08-25T03:38:42.473Z,0
2017-08-25T03:39:23.044Z,0
2017-08-25T03:40:03.610Z,0
2017-08-25T03:40:44.202Z,0
2017-08-25T03:41:24.761Z,0
2017-08-25T03:42:05.329Z,0
2017-08-25T03:42:45.888Z,0
2017-08-25T03:43:26.469Z,0
2017-08-25T03:44:07.048Z,0
2017-08-25T03:44:47.614Z,0
2017-08-25T03:45:28.189Z,0
2017-08-25T03:46:08.752Z,0
2017-08-25T03:46:49.321Z,0
2017-08-25T03:47:29.877Z,0
2017-08-25T03:48:10.430Z,0
2017-08-25T03:48:51.005Z,0
2017-08-25T03:49:31.580Z,0
2017-08-25T03:50:12.144Z,0
2017-08-25T03:50:52.703Z,0
2017-08-25T03:51:33.265Z,0
2017-08-25T03:52:13.821Z,0
2017-08-25T03:52:54.379Z,0
2017-08-25T03:53:34.932Z,0
2017-08-25T03:54:15.494Z,0
2017-08-25T03:54:56.061Z,0
2017-08-25T03:55:36.628Z,0
2017-08-25T03:56:17.196Z,0
2017-08-25T03:56:57.754Z,0
2017-08-25T03:57:38.316Z,0
2017-08-25T03:58:18.876Z,0
2017-08-25T03:58:59.435Z,0
2017-08-25T03:59:39.984Z,0
2017-08-25T04:00:20.539Z,0
2017-08-25T04:01:01.108Z,0
2017-08-25T04:01:41.686Z,0
2017-08-25T04:02:22.252Z,0
2017-08-25T04:03:02.829Z,0
2017-08-25T04:03:43.402Z,0
2017-08-25T04:04:23.993Z,0
2017-08-25T04:05:04.510Z,0
2017-08-25T04:05:45.053Z,0
2017-08-25T04:06:25.615Z,0
2017-08-25T04:07:06.167Z,0
2017-08-25T04:07:46.720Z,0
2017-08-25T04:08:27.277Z,0
2017-08-25T04:09:07.839Z,0
2017-08-25T04:09:48.391Z,0
2017-08-25T04:10:28.951Z,0
2017-08-25T04:11:09.516Z,0
2017-08-25T04:11:50.061Z,0
2017-08-25T04:12:30.615Z,0
2017-08-25T04:13:11.214Z,0
2017-08-25T04:13:51.783Z,0
2017-08-25T04:14:32.349Z,0
2017-08-25T04:15:12.930Z,0
2017-08-25T04:15:53.481Z,0
2017-08-25T04:16:34.060Z,0
2017-08-25T04:17:14.618Z,0
2017-08-25T04:17:55.195Z,0
2017-08-25T04:18:35.760Z,0
2017-08-25T04:19:16.314Z,0
2017-08-25T04:19:56.881Z,0
2017-08-25T04:20:37.449Z,0
2017-08-25T04:21:18.018Z,0
2017-08-25T04:21:58.688Z,0
2017-08-25T04:22:39.256Z,0
2017-08-25T04:23:19.819Z,0
2017-08-25T04:24:00.369Z,0
2017-08-25T04:24:40.950Z,0
2017-08-25T04:25:21.506Z,0
2017-08-25T04:26:02.079Z,0
2017-08-25T04:26:42.651Z,0
2017-08-25T04:27:23.223Z,0
2017-08-25T04:28:03.845Z,0
2017-08-25T04:28:44.415Z,0
2017-08-25T04:29:24.973Z,0
2017-08-25T04:30:05.539Z,0
2017-08-25T04:30:46.116Z,0
2017-08-25T04:31:26.679Z,0
2017-08-25T04:32:07.242Z,0
2017-08-25T04:32:47.806Z,0
2017-08-25T04:33:28.402Z,0
2017-08-25T04:34:08.980Z,0
2017-08-25T04:34:49.547Z,0
2017-08-25T04:35:30.101Z,0
2017-08-25T04:36:10.673Z,0
2017-08-25T04:36:51.246Z,0
2017-08-25T04:37:31.806Z,0
2017-08-25T04:38:12.368Z,0
2017-08-25T04:38:52.938Z,0
2017-08-25T04:39:33.513Z,0
2017-08-25T04:40:14.081Z,0
2017-08-25T04:40:54.655Z,0
2017-08-25T04:41:35.212Z,5
2017-08-25T04:42:15.776Z,5
2017-08-25T04:42:56.354Z,5
2017-08-25T04:43:36.921Z,5
2017-08-25T04:44:17.490Z,5
2017-08-25T04:44:58.068Z,5
2017-08-25T04:45:38.640Z,5
2017-08-25T04:46:19.198Z,5
2017-08-25T04:46:59.770Z,5
2017-08-25T04:47:40.342Z,5
2017-08-25T04:48:20.903Z,5
2017-08-25T04:49:01.458Z,5
2017-08-25T04:49:42.021Z,5
2017-08-25T04:50:22.601Z,5
2017-08-25T04:51:03.167Z,5
2017-08-25T04:51:43.718Z,5
2017-08-25T04:52:24.284Z,10
2017-08-25T04:53:04.835Z,10
2017-08-25T04:53:45.405Z,10
2017-08-25T04:54:25.982Z,10
2017-08-25T04:55:06.562Z,10
2017-08-25T04:55:47.131Z,10
2017-08-25T04:56:27.698Z,10
2017-08-25T04:57:08.248Z,10
2017-08-25T04:57:48.811Z,10
2017-08-25T04:58:29.374Z,10
2017-08-25T04:59:09.947Z,10
2017-08-25T04:59:50.501Z,10
2017-08-25T05:00:31.075Z,10
2017-08-25T05:01:11.645Z,10
2017-08-25T05:01:52.210Z,10
2017-08-25T05:02:32.761Z,10
2017-08-25T05:03:13.328Z,10
2017-08-25T05:03:53.908Z,10
2017-08-25T05:04:34.477Z,10
2017-08-25T05:05:15.041Z,10
2017-08-25T05:05:55.622Z,15
2017-08-25T05:06:36.179Z,15
2017-08-25T05:07:16.812Z,15
2017-08-25T05:07:57.372Z,15
2017-08-25T05:08:37.944Z,15
2017-08-25T05:09:18.508Z,15
2017-08-25T05:09:59.080Z,15
2017-08-25T05:10:39.668Z,15
2017-08-25T05:11:20.227Z,20
2017-08-25T05:12:00.781Z,20
2017-08-25T05:12:41.332Z,20
2017-08-25T05:13:21.910Z,20
2017-08-25T05:14:02.488Z,20
2017-08-25T05:14:43.056Z,20
2017-08-25T05:15:23.657Z,20
2017-08-25T05:16:04.171Z,20
2017-08-25T05:16:44.764Z,20
2017-08-25T05:17:25.368Z,20
2017-08-25T05:18:06.360Z,20
2017-08-25T05:18:46.980Z,20
2017-08-25T05:19:27.536Z,25
2017-08-25T05:20:08.091Z,25
2017-08-25T05:20:48.629Z,25
2017-08-25T05:21:29.243Z,25
2017-08-25T05:22:09.822Z,25
2017-08-25T05:22:50.367Z,25
2017-08-25T05:23:30.872Z,25
2017-08-25T05:24:11.413Z,25
2017-08-25T05:24:51.972Z,25
2017-08-25T05:25:32.537Z,25
2017-08-25T05:26:13.101Z,30
2017-08-25T05:26:53.676Z,30
2017-08-25T05:27:34.244Z,30
2017-08-25T05:28:14.816Z,30
2017-08-25T05:28:55.371Z,30
2017-08-25T05:29:35.942Z,30
2017-08-25T05:30:16.670Z,30
2017-08-25T05:30:57.045Z,30
2017-08-25T05:31:37.609Z,30
2017-08-25T05:32:18.182Z,30
2017-08-25T05:32:58.700Z,30
2017-08-25T05:33:39.325Z,30
2017-08-25T05:34:19.828Z,30
2017-08-25T05:35:00.435Z,30
2017-08-25T05:35:41.089Z,30
2017-08-25T05:36:21.676Z,35
2017-08-25T05:38:41.178Z,35
2017-08-25T05:39:21.729Z,35
2017-08-25T05:40:02.288Z,35
2017-08-25T05:40:42.841Z,35
2017-08-25T05:41:23.370Z,35
2017-08-25T05:42:03.943Z,35
2017-08-25T05:42:44.457Z,35
2017-08-25T05:43:24.994Z,35
2017-08-25T05:44:05.717Z,35
2017-08-25T05:44:46.246Z,35
2017-08-25T05:45:26.783Z,35
2017-08-25T05:46:07.534Z,35
2017-08-25T05:46:49.284Z,40
2017-08-25T05:47:29.831Z,40
2017-08-25T05:48:10.385Z,40
2017-08-25T05:48:50.934Z,40
2017-08-25T05:49:31.524Z,40
2017-08-25T05:50:12.033Z,40
2017-08-25T05:50:52.567Z,40
2017-08-25T05:51:33.161Z,40
2017-08-25T05:52:13.678Z,40
2017-08-25T05:52:54.269Z,40
2017-08-25T05:53:34.755Z,40
2017-08-25T05:54:15.316Z,40
2017-08-25T05:54:55.966Z,45
2017-08-25T05:57:24.305Z,45
2017-08-25T05:58:04.873Z,45
2017-08-25T05:58:45.828Z,50
2017-08-25T05:59:26.373Z,45
2017-08-25T06:00:06.916Z,45
2017-08-25T06:00:47.485Z,45
2017-08-25T06:01:28.016Z,45
2017-08-25T06:02:08.844Z,50
2017-08-25T06:02:49.406Z,50
2017-08-25T06:03:29.961Z,50
2017-08-25T06:04:10.838Z,50
2017-08-25T06:04:51.392Z,50
2017-08-25T06:05:31.952Z,50
2017-08-25T06:06:12.475Z,50
2017-08-25T06:06:53.042Z,50
2017-08-25T06:07:33.554Z,50
2017-08-25T06:08:14.074Z,50
2017-08-25T06:08:54.609Z,50
2017-08-25T06:09:35.227Z,40
2017-08-25T06:10:16.205Z,50
2017-08-25T06:10:57.068Z,50
2017-08-25T06:11:37.423Z,50
2017-08-25T06:12:17.924Z,50
2017-08-25T06:12:59.127Z,50
2017-08-25T06:13:39.682Z,50
2017-08-25T06:14:20.242Z,50
2017-08-25T06:15:00.807Z,50
2017-08-25T06:15:41.422Z,50
2017-08-25T06:16:21.987Z,50
2017-08-25T06:17:02.605Z,50
2017-08-25T06:17:43.438Z,50
2017-08-25T06:18:24.016Z,50
2017-08-25T06:19:04.585Z,50
2017-08-25T06:19:45.177Z,50
2017-08-25T06:20:25.761Z,50
2017-08-25T06:21:06.238Z,50
2017-08-25T06:21:46.800Z,50
2017-08-25T06:22:27.316Z,50
2017-08-25T06:23:08.547Z,50
2017-08-25T06:23:48.710Z,50
2017-08-25T06:24:29.267Z,55
2017-08-25T06:25:09.764Z,55
2017-08-25T06:25:50.397Z,55
2017-08-25T06:26:30.924Z,55
2017-08-25T06:27:11.484Z,55
2017-08-25T06:27:52.023Z,60
2017-08-25T06:28:33.529Z,60
2017-08-25T06:29:14.066Z,60
2017-08-25T06:29:54.605Z,55
2017-08-25T06:30:35.802Z,60
2017-08-25T06:31:16.424Z,60
2017-08-25T06:31:56.964Z,60
2017-08-25T06:32:37.543Z,60
2017-08-25T06:33:18.139Z,65
2017-08-25T06:33:59.034Z,65
2017-08-25T06:34:39.559Z,65
2017-08-25T06:35:20.115Z,65
2017-08-25T06:36:00.675Z,65
2017-08-25T06:36:41.239Z,65
2017-08-25T06:37:21.799Z,65
2017-08-25T06:38:02.343Z,70
2017-08-25T06:38:42.917Z,75
2017-08-25T06:39:23.460Z,75
2017-08-25T06:40:04.003Z,75
2017-08-25T06:40:44.624Z,75
2017-08-25T06:41:25.143Z,75
2017-08-25T06:42:05.729Z,75
2017-08-25T06:42:46.279Z,75
2017-08-25T06:43:26.886Z,75
2017-08-25T06:44:07.372Z,75
2017-08-25T06:44:47.921Z,75
2017-08-25T06:45:28.464Z,75
2017-08-25T06:46:09.010Z,80
2017-08-25T06:46:49.533Z,80
2017-08-25T06:47:30.105Z,85
2017-08-25T06:48:10.618Z,85
2017-08-25T06:48:51.309Z,80
2017-08-25T06:49:32.347Z,80
2017-08-25T06:50:12.523Z,90
2017-08-25T06:50:53.142Z,90
2017-08-25T06:51:33.654Z,90
2017-08-25T06:52:14.336Z,90
2017-08-25T06:52:55.358Z,90
2017-08-25T06:53:35.897Z,90
2017-08-25T06:54:16.462Z,85
2017-08-25T06:54:57.011Z,85
2017-08-25T06:55:37.570Z,85
2017-08-25T06:56:18.144Z,85
2017-08-25T06:56:58.698Z,85
2017-08-25T06:57:39.224Z,80
2017-08-25T06:58:19.806Z,80
2017-08-25T06:59:00.347Z,80
2017-08-25T06:59:40.909Z,80
2017-08-25T07:00:21.437Z,80
2017-08-25T07:01:02.064Z,80
2017-08-25T07:01:44.004Z,80
2017-08-25T07:02:24.531Z,80
2017-08-25T07:03:05.085Z,80
2017-08-25T07:03:45.592Z,80
2017-08-25T07:04:26.111Z,80
2017-08-25T07:05:06.663Z,80
2017-08-25T07:05:47.476Z,85
2017-08-25T07:06:27.821Z,85
2017-08-25T07:07:08.303Z,85
2017-08-25T07:07:48.913Z,90
2017-08-25T07:08:29.653Z,90
2017-08-25T07:09:10.273Z,90
2017-08-25T07:09:50.935Z,90
2017-08-25T07:12:11.036Z,90
2017-08-25T07:14:31.035Z,95
2017-08-25T07:15:11.566Z,90
2017-08-25T07:15:52.086Z,95
2017-08-25T07:16:33.722Z,100
2017-08-25T07:17:14.380Z,105
2017-08-25T07:17:54.934Z,100
2017-08-25T07:18:36.137Z,100
2017-08-25T07:19:20.228Z,105
2017-08-25T07:20:00.790Z,105
2017-08-25T07:20:41.243Z,90
2017-08-25T07:21:21.956Z,85
2017-08-25T07:22:02.633Z,85
2017-08-25T07:22:44.008Z,105
2017-08-25T07:23:23.762Z,105
2017-08-25T07:24:04.340Z,90
2017-08-25T07:24:44.901Z,105
2017-08-25T07:25:28.052Z,105
2017-08-25T07:26:08.637Z,85
2017-08-25T07:26:49.194Z,105
2017-08-25T07:27:29.695Z,105
2017-08-25T07:28:13.195Z,85
2017-08-25T07:28:53.751Z,105
2017-08-25T07:29:34.294Z,105
2017-08-25T07:30:14.864Z,95
2017-08-25T07:30:55.403Z,95
2017-08-25T07:31:36.009Z,95
2017-08-25T07:32:16.539Z,80
2017-08-25T07:32:57.094Z,90
2017-08-25T07:33:37.675Z,85
2017-08-25T07:34:18.195Z,85
2017-08-25T07:34:58.742Z,85
2017-08-25T07:35:39.292Z,90
2017-08-25T07:36:19.858Z,105
2017-08-25T07:37:00.416Z,100
2017-08-25T07:37:41.010Z,85
2017-08-25T07:38:21.529Z,105
2017-08-25T07:39:02.095Z,105
2017-08-25T07:39:42.657Z,95
2017-08-25T07:40:23.198Z,105
2017-08-25T07:41:04.078Z,85
2017-08-25T07:41:45.220Z,80
2017-08-25T07:42:25.938Z,70
2017-08-25T07:43:06.983Z,65
2017-08-25T07:43:48.677Z,85
2017-08-25T07:44:30.025Z,65
2017-08-25T07:45:10.575Z,85
2017-08-25T07:45:51.119Z,80
2017-08-25T07:46:31.682Z,85
2017-08-25T07:47:12.243Z,85
2017-08-25T07:47:52.810Z,80
2017-08-25T07:48:33.364Z,80
2017-08-25T07:49:13.922Z,80
2017-08-25T07:49:54.523Z,80
2017-08-25T07:50:35.092Z,80
2017-08-25T07:51:15.638Z,80
2017-08-25T07:51:56.189Z,80
2017-08-25T07:52:36.744Z,65
2017-08-25T07:53:17.293Z,60
2017-08-25T07:53:57.872Z,60
2017-08-25T07:54:38.423Z,80
2017-08-25T07:55:18.970Z,70
2017-08-25T07:55:59.524Z,75
2017-08-25T07:56:40.071Z,65
2017-08-25T07:57:20.679Z,70
2017-08-25T07:58:01.194Z,65
2017-08-25T07:58:41.729Z,65
2017-08-25T07:59:22.282Z,70
2017-08-25T08:00:02.841Z,70
2017-08-25T08:00:43.431Z,70
2017-08-25T08:01:24.012Z,70
2017-08-25T08:02:04.585Z,70
2017-08-25T08:02:45.145Z,70
2017-08-25T08:03:25.738Z,70
2017-08-25T08:04:06.401Z,70
2017-08-25T08:04:47.108Z,70
2017-08-25T08:05:27.662Z,70
2017-08-25T08:06:08.199Z,70
2017-08-25T08:06:48.766Z,70
2017-08-25T08:07:29.297Z,70
2017-08-25T08:08:09.831Z,70
2017-08-25T08:08:50.451Z,70
2017-08-25T08:09:30.973Z,65
2017-08-25T08:10:11.536Z,65
2017-08-25T08:10:52.761Z,65
2017-08-25T08:11:33.472Z,65
2017-08-25T08:12:14.111Z,65
2017-08-25T08:12:55.268Z,65
2017-08-25T08:13:35.882Z,65
2017-08-25T08:14:16.410Z,65
2017-08-25T08:14:56.960Z,65
2017-08-25T08:15:37.539Z,65
2017-08-25T08:16:18.456Z,65
2017-08-25T08:16:59.023Z,65
2017-08-25T08:17:39.607Z,65
2017-08-25T08:18:20.811Z,65
2017-08-25T08:19:01.307Z,65
2017-08-25T08:19:41.887Z,60
2017-08-25T08:20:22.453Z,60
2017-08-25T08:21:03.041Z,60
2017-08-25T08:21:43.639Z,60
2017-08-25T08:22:24.214Z,60
2017-08-25T08:23:04.775Z,60
2017-08-25T08:23:45.326Z,60
2017-08-25T08:24:25.952Z,60
2017-08-25T08:25:06.498Z,60
2017-08-25T08:25:47.031Z,60
2017-08-25T08:26:27.761Z,60
2017-08-25T08:27:08.347Z,60
2017-08-25T08:27:48.902Z,60
2017-08-25T08:28:29.492Z,60
2017-08-25T08:29:10.277Z,60
2017-08-25T08:29:51.095Z,60
2017-08-25T08:30:31.686Z,60
2017-08-25T08:31:12.249Z,60
2017-08-25T08:31:52.806Z,60
2017-08-25T08:32:33.307Z,60
2017-08-25T08:33:13.871Z,60
2017-08-25T08:33:54.427Z,60
2017-08-25T08:34:34.922Z,60
2017-08-25T08:35:15.697Z,60
2017-08-25T08:35:56.163Z,60
2017-08-25T08:36:36.659Z,60
2017-08-25T08:37:17.203Z,60
2017-08-25T08:37:57.804Z,60
2017-08-25T08:38:38.326Z,60
2017-08-25T08:39:18.961Z,60
2017-08-25T08:39:59.562Z,60
2017-08-25T08:40:40.030Z,60
2017-08-25T08:41:20.741Z,60
2017-08-25T08:42:01.178Z,60
2017-08-25T08:42:41.702Z,60
2017-08-25T08:43:22.331Z,60
2017-08-25T08:44:02.900Z,60
2017-08-25T08:44:43.467Z,60
2017-08-25T08:45:24.503Z,60
2017-08-25T08:46:04.823Z,60
2017-08-25T08:46:45.416Z,60
2017-08-25T08:47:25.968Z,60
2017-08-25T08:48:06.565Z,60
2017-08-25T08:48:47.129Z,60
2017-08-25T08:49:27.667Z,60
2017-08-25T08:50:08.322Z,60
2017-08-25T08:50:48.944Z,60
2017-08-25T08:51:29.693Z,60
2017-08-25T08:52:10.193Z,60
2017-08-25T08:52:50.758Z,60
2017-08-25T08:53:31.330Z,60
2017-08-25T08:54:11.866Z,60
2017-08-25T08:54:52.458Z,60
2017-08-25T08:55:32.948Z,60
2017-08-25T08:56:13.492Z,60
2017-08-25T08:56:54.162Z,60
2017-08-25T08:57:34.847Z,60
2017-08-25T08:58:15.408Z,60
2017-08-25T08:58:56.149Z,60
2017-08-25T08:59:36.719Z,60
2017-08-25T09:00:17.300Z,60
2017-08-25T09:00:57.853Z,60
2017-08-25T09:01:38.349Z,60
2017-08-25T09:02:19.053Z,60
2017-08-25T09:02:59.571Z,60
2017-08-25T09:03:40.116Z,60
2017-08-25T09:04:20.747Z,60
2017-08-25T09:05:01.315Z,55
2017-08-25T09:05:41.801Z,60
2017-08-25T09:06:22.359Z,60
2017-08-25T09:07:02.901Z,55
2017-08-25T09:07:43.451Z,55
2017-08-25T09:08:24.007Z,50
2017-08-25T09:09:04.540Z,55
2017-08-25T09:09:45.075Z,50
2017-08-25T09:10:25.606Z,50
2017-08-25T09:11:06.174Z,50
2017-08-25T09:11:46.751Z,55
2017-08-25T09:12:27.287Z,55
2017-08-25T09:13:07.830Z,50
2017-08-25T09:13:48.394Z,50
2017-08-25T09:14:28.927Z,50
2017-08-25T09:15:09.471Z,50
2017-08-25T09:15:50.020Z,40
2017-08-25T09:16:30.587Z,30
2017-08-25T09:17:11.141Z,55
2017-08-25T09:17:51.724Z,55
2017-08-25T09:18:32.299Z,50
2017-08-25T09:19:12.813Z,50
2017-08-25T09:19:53.370Z,60
2017-08-25T09:20:33.886Z,55
2017-08-25T09:21:14.442Z,60
2017-08-25T09:21:55.010Z,55
2017-08-25T09:22:35.555Z,60
2017-08-25T09:23:16.075Z,50
2017-08-25T09:23:56.654Z,50
2017-08-25T09:24:37.220Z,50
2017-08-25T09:25:17.773Z,65
2017-08-25T09:25:58.344Z,65
2017-08-25T09:26:38.918Z,55
2017-08-25T09:27:19.499Z,60
2017-08-25T09:28:00.063Z,55
2017-08-25T09:28:40.606Z,50
2017-08-25T09:29:21.164Z,50
2017-08-25T09:30:01.721Z,50
2017-08-25T09:30:42.261Z,50
2017-08-25T09:31:22.836Z,60
2017-08-25T09:32:03.399Z,60
2017-08-25T09:32:43.954Z,60
2017-08-25T09:33:24.502Z,50
2017-08-25T09:34:05.076Z,60
2017-08-25T09:34:45.639Z,55
2017-08-25T09:35:26.194Z,50
2017-08-25T09:36:06.724Z,55
2017-08-25T09:36:47.268Z,55
2017-08-25T09:37:27.811Z,55
2017-08-25T09:38:08.376Z,55
2017-08-25T09:38:48.947Z,55
2017-08-25T09:39:29.524Z,55
2017-08-25T09:40:10.143Z,55
2017-08-25T09:40:50.773Z,55
2017-08-25T09:41:31.280Z,55
2017-08-25T09:42:11.780Z,55
2017-08-25T09:42:52.333Z,55
2017-08-25T09:43:32.905Z,55
2017-08-25T09:44:13.587Z,55
2017-08-25T09:44:54.094Z,55
2017-08-25T09:45:34.682Z,55
2017-08-25T09:46:15.227Z,50
2017-08-25T09:46:55.779Z,50
2017-08-25T09:47:36.325Z,50
2017-08-25T09:48:16.865Z,50
2017-08-25T09:48:57.412Z,50
2017-08-25T09:49:38.045Z,50
2017-08-25T09:50:18.566Z,50
2017-08-25T09:50:59.160Z,50
2017-08-25T09:51:39.679Z,50
2017-08-25T09:52:20.223Z,50
2017-08-25T09:53:00.784Z,50
2017-08-25T09:53:41.367Z,50
2017-08-25T09:54:21.863Z,50
2017-08-25T09:55:02.387Z,50
2017-08-25T09:55:42.978Z,50